Time;durP1;ratioP1;P1;durP2;ratioP2;P2;SDS_P1;SDS_P2;PMS_P1;PMS_P2;Temp;Humidity;BMP_temperature;BMP_pressure;BME280_temperature;BME280_humidity;BME280_pressure;Samples;Min_cycle;Max_cycle;Signal;HPM_P1;HPM_P2
2021/07/26 00:00:12;;;;;;;2.40;2.20;;;23.30;99.90;;;;;;5060181;28;20848;-81
2021/07/26 00:02:38;;;;;;;2.60;2.40;;;23.30;99.90;;;;;;5069525;28;20492;-80
2021/07/26 00:05:06;;;;;;;2.30;1.90;;;23.30;99.90;;;;;;5062132;28;20942;-81
2021/07/26 00:07:34;;;;;;;2.27;1.87;;;23.20;99.90;;;;;;5063889;28;20464;-81
2021/07/26 00:10:03;;;;;;;2.03;1.87;;;23.20;99.90;;;;;;5070817;28;20445;-81
2021/07/26 00:12:30;;;;;;;2.57;2.30;;;23.20;99.90;;;;;;5060602;28;20485;-81
2021/07/26 00:14:57;;;;;;;3.17;2.20;;;23.20;99.90;;;;;;5071628;28;20448;-81
2021/07/26 00:17:23;;;;;;;2.37;2.17;;;23.20;99.90;;;;;;5077534;28;20444;-81
2021/07/26 00:19:50;;;;;;;2.13;1.93;;;23.10;99.90;;;;;;5059732;28;20446;-81
2021/07/26 00:22:17;;;;;;;2.50;1.93;;;23.10;99.90;;;;;;5074100;28;20973;-81
2021/07/26 00:24:45;;;;;;;2.17;2.07;;;23.10;99.90;;;;;;5079807;28;20433;-81
2021/07/26 00:27:11;;;;;;;2.77;2.10;;;23.10;99.90;;;;;;5076445;28;20441;-81
2021/07/26 00:29:38;;;;;;;3.03;2.27;;;23.10;99.90;;;;;;5077124;28;20429;-80
2021/07/26 00:32:05;;;;;;;2.33;1.90;;;23.10;99.90;;;;;;5076906;28;20485;-81
2021/07/26 00:34:33;;;;;;;2.37;2.03;;;23.10;99.90;;;;;;5068666;28;20817;-81
2021/07/26 00:37:02;;;;;;;2.00;1.80;;;23.10;99.90;;;;;;5084118;28;20468;-80
2021/07/26 00:39:30;;;;;;;2.50;2.10;;;23.00;99.90;;;;;;5072769;28;20456;-80
2021/07/26 00:41:59;;;;;;;2.47;2.27;;;23.00;99.90;;;;;;5065614;28;20449;-80
2021/07/26 00:44:27;;;;;;;2.50;2.30;;;22.80;99.90;;;;;;5063713;28;20430;-80
2021/07/26 00:46:54;;;;;;;2.17;1.97;;;23.00;99.90;;;;;;5065256;28;20456;-80
2021/07/26 00:49:22;;;;;;;2.40;2.20;;;23.00;99.90;;;;;;5063280;28;20445;-81
2021/07/26 00:51:51;;;;;;;1.97;1.77;;;23.00;99.90;;;;;;5068812;28;20476;-80
2021/07/26 00:54:20;;;;;;;2.20;2.00;;;22.90;99.90;;;;;;5067540;28;20448;-80
2021/07/26 00:56:48;;;;;;;2.03;1.83;;;23.00;99.90;;;;;;5077238;28;20444;-80
2021/07/26 00:59:17;;;;;;;2.70;2.50;;;22.90;99.90;;;;;;5082028;28;20507;-81
2021/07/26 01:01:45;;;;;;;3.10;2.43;;;22.90;99.90;;;;;;5080433;28;20442;-81
2021/07/26 01:04:11;;;;;;;2.23;1.80;;;22.90;99.90;;;;;;5073440;28;20453;-81
2021/07/26 01:06:39;;;;;;;2.90;2.40;;;22.90;99.90;;;;;;5069963;28;20445;-80
2021/07/26 01:09:06;;;;;;;2.03;1.70;;;22.90;99.90;;;;;;5046938;28;20454;-80
2021/07/26 01:11:33;;;;;;;2.53;2.10;;;22.80;99.90;;;;;;5079537;28;20820;-80
2021/07/26 01:14:00;;;;;;;2.20;2.00;;;22.80;99.90;;;;;;5063470;28;20442;-80
2021/07/26 01:16:29;;;;;;;2.40;2.13;;;22.80;99.90;;;;;;5061545;28;20446;-81
2021/07/26 01:18:56;;;;;;;3.90;2.47;;;22.80;99.90;;;;;;5060360;28;20453;-81
2021/07/26 01:21:24;;;;;;;2.33;2.13;;;22.80;99.90;;;;;;5074580;28;20442;-80
2021/07/26 01:23:52;;;;;;;2.50;2.30;;;22.80;99.90;;;;;;5066272;28;20452;-81
2021/07/26 01:26:20;;;;;;;2.77;2.10;;;22.80;99.90;;;;;;5074976;28;20447;-80
2021/07/26 01:28:49;;;;;;;2.00;1.73;;;22.80;99.90;;;;;;5079887;28;20477;-80
2021/07/26 01:31:16;;;;;;;3.03;2.77;;;22.70;99.90;;;;;;5068908;28;20548;-80
2021/07/26 01:33:44;;;;;;;3.40;2.70;;;22.70;99.90;;;;;;5065835;28;20441;-80
2021/07/26 01:36:11;;;;;;;2.27;2.07;;;22.70;99.90;;;;;;5068160;28;20454;-80
2021/07/26 01:38:40;;;;;;;3.60;2.40;;;22.70;99.90;;;;;;5066109;28;20441;-81
2021/07/26 01:41:08;;;;;;;1.80;1.70;;;22.70;99.90;;;;;;5080123;28;21002;-80
2021/07/26 01:43:38;;;;;;;2.27;2.07;;;22.70;99.90;;;;;;5055914;28;20458;-80
2021/07/26 01:46:13;;;;;;;1.87;1.63;;;22.60;99.90;;;;;;5078094;28;20932;-81
2021/07/26 01:48:49;;;;;;;2.40;1.93;;;22.60;99.90;;;;;;5076356;28;20426;-80
2021/07/26 01:51:18;;;;;;;2.07;1.90;;;22.60;99.90;;;;;;5065993;28;20434;-81
2021/07/26 01:53:47;;;;;;;2.60;2.30;;;22.60;99.90;;;;;;5064421;28;20450;-81
2021/07/26 01:56:14;;;;;;;2.70;2.10;;;22.60;99.90;;;;;;5072107;28;20503;-81
2021/07/26 01:58:42;;;;;;;2.20;2.00;;;22.50;99.90;;;;;;5064121;28;20441;-80
2021/07/26 02:01:08;;;;;;;2.83;1.87;;;22.60;99.90;;;;;;5067655;28;20514;-80
2021/07/26 02:03:35;;;;;;;2.40;2.20;;;22.60;99.90;;;;;;5070682;28;20448;-80
2021/07/26 02:06:02;;;;;;;2.37;2.17;;;22.50;99.90;;;;;;5083239;28;20449;-80
2021/07/26 02:08:29;;;;;;;3.03;2.73;;;22.50;99.90;;;;;;5069423;28;20806;-81
2021/07/26 02:10:57;;;;;;;2.80;2.20;;;22.50;99.90;;;;;;5064335;28;20488;-79
2021/07/26 02:13:23;;;;;;;2.70;2.50;;;22.50;99.90;;;;;;5080430;28;20215;-80
2021/07/26 02:15:50;;;;;;;2.50;2.30;;;22.50;99.90;;;;;;5084252;28;20445;-80
2021/07/26 02:18:17;;;;;;;2.43;2.20;;;22.40;99.90;;;;;;5065647;28;20472;-81
2021/07/26 02:20:43;;;;;;;2.30;2.10;;;22.40;99.90;;;;;;5081387;28;20441;-81
2021/07/26 02:23:10;;;;;;;2.20;2.00;;;22.40;99.90;;;;;;5068687;28;20446;-80
2021/07/26 02:25:37;;;;;;;2.00;1.77;;;22.00;99.90;;;;;;5065160;28;20195;-80
2021/07/26 02:28:05;;;;;;;2.90;2.60;;;22.40;99.90;;;;;;5062907;28;20506;-81
2021/07/26 02:30:31;;;;;;;2.73;2.50;;;22.40;99.90;;;;;;5061524;28;20458;-81
2021/07/26 02:32:58;;;;;;;3.20;2.57;;;22.40;99.90;;;;;;5064040;28;20480;-81
2021/07/26 02:35:27;;;;;;;2.23;1.87;;;22.30;99.90;;;;;;5064057;28;20449;-81
2021/07/26 02:37:54;;;;;;;1.70;1.60;;;22.30;99.90;;;;;;5063061;28;20480;-81
2021/07/26 02:40:21;;;;;;;2.10;1.88;;;22.30;99.90;;;;;;5063887;28;20441;-80
2021/07/26 02:42:48;;;;;;;2.43;2.00;;;22.40;99.90;;;;;;5062840;28;20536;-80
2021/07/26 02:45:16;;;;;;;2.20;1.90;;;22.30;99.90;;;;;;5065819;28;20449;-80
2021/07/26 02:47:43;;;;;;;2.03;1.85;;;22.30;99.90;;;;;;5075833;28;20442;-81
2021/07/26 02:50:11;;;;;;;2.70;1.85;;;22.30;99.90;;;;;;5062983;28;20206;-82
2021/07/26 02:52:38;;;;;;;2.38;2.17;;;22.30;99.90;;;;;;5069742;28;20199;-82
2021/07/26 02:55:06;;;;;;;2.90;2.47;;;22.20;99.90;;;;;;5066495;28;20199;-82
2021/07/26 02:57:33;;;;;;;2.37;2.17;;;22.20;99.90;;;;;;5056837;28;20461;-82
2021/07/26 03:00:00;;;;;;;2.75;2.38;;;22.20;99.90;;;;;;5057807;28;20450;-82
2021/07/26 03:02:28;;;;;;;2.40;2.20;;;22.20;99.90;;;;;;5050445;28;20203;-81
2021/07/26 03:04:57;;;;;;;3.55;2.35;;;22.20;99.90;;;;;;5038733;28;20204;-82
2021/07/26 03:07:24;;;;;;;3.10;2.80;;;22.10;99.90;;;;;;5069487;28;20191;-81
2021/07/26 03:09:50;;;;;;;2.30;2.10;;;22.10;99.90;;;;;;5058917;28;20195;-81
2021/07/26 03:12:17;;;;;;;2.58;2.00;;;22.10;99.90;;;;;;5060811;28;20213;-82
2021/07/26 03:14:44;;;;;;;1.93;1.73;;;22.10;99.90;;;;;;5076303;28;20202;-82
2021/07/26 03:17:10;;;;;;;2.55;2.30;;;22.10;99.90;;;;;;5071674;28;20476;-82
2021/07/26 03:19:38;;;;;;;4.00;2.80;;;22.10;99.90;;;;;;5065276;28;20195;-82
2021/07/26 03:22:54;;;;;;;2.60;2.40;;;22.10;99.90;;;;;;5071035;28;20457;-82
2021/07/26 03:25:21;;;;;;;3.13;2.45;;;22.00;99.90;;;;;;5071539;28;20175;-83
2021/07/26 03:27:49;;;;;;;2.35;2.15;;;22.00;99.90;;;;;;5057107;28;20223;-83
2021/07/26 03:30:16;;;;;;;2.75;2.20;;;22.00;99.90;;;;;;5056109;28;20725;-83
2021/07/26 03:32:43;;;;;;;3.25;2.38;;;22.10;99.90;;;;;;5055918;28;20216;-83
2021/07/26 03:35:13;;;;;;;3.13;2.38;;;22.00;99.90;;;;;;5061177;28;20195;-82
2021/07/26 03:37:40;;;;;;;2.43;2.10;;;22.00;99.90;;;;;;5070612;28;20188;-82
2021/07/26 03:40:08;;;;;;;2.30;2.10;;;22.00;99.90;;;;;;5058576;28;20918;-83
2021/07/26 03:42:34;;;;;;;2.50;2.00;;;22.00;99.90;;;;;;5066707;28;20198;-83
2021/07/26 03:45:01;;;;;;;2.40;2.17;;;21.90;99.90;;;;;;5075818;28;20206;-82
2021/07/26 03:47:28;;;;;;;2.80;2.55;;;21.90;99.90;;;;;;5057185;28;20446;-82
2021/07/26 03:49:55;;;;;;;2.78;2.22;;;21.90;99.90;;;;;;5056954;28;20565;-83
2021/07/26 03:52:23;;;;;;;2.77;2.30;;;21.90;99.90;;;;;;5065181;28;20210;-84
2021/07/26 03:54:50;;;;;;;2.30;2.03;;;21.80;99.90;;;;;;5059637;28;20459;-84
2021/07/26 03:57:16;;;;;;;2.17;1.98;;;21.80;99.90;;;;;;5054622;28;20442;-83
2021/07/26 03:59:43;;;;;;;2.50;2.15;;;21.80;99.90;;;;;;5054354;28;20640;-83
2021/07/26 04:02:10;;;;;;;2.58;2.38;;;21.80;99.90;;;;;;5055664;28;20191;-83
2021/07/26 04:04:36;;;;;;;2.72;2.53;;;21.80;99.90;;;;;;5060649;28;20204;-83
2021/07/26 04:07:07;;;;;;;2.53;2.15;;;21.80;99.90;;;;;;5069768;28;20207;-83
2021/07/26 04:09:36;;;;;;;2.88;2.58;;;21.80;99.90;;;;;;5055431;28;20188;-83
2021/07/26 04:12:06;;;;;;;2.55;2.35;;;21.80;99.90;;;;;;5054640;28;20201;-83
2021/07/26 04:14:36;;;;;;;3.10;2.50;;;21.80;99.90;;;;;;5063027;28;20651;-82
2021/07/26 04:17:03;;;;;;;2.38;2.17;;;21.70;99.90;;;;;;5055149;28;20188;-83
2021/07/26 04:19:31;;;;;;;3.13;2.55;;;21.70;99.90;;;;;;5055009;28;20651;-83
2021/07/26 04:21:58;;;;;;;2.67;2.00;;;21.70;99.90;;;;;;5054167;28;20206;-83
2021/07/26 04:24:26;;;;;;;2.38;1.75;;;21.70;99.90;;;;;;5072679;28;20206;-82
2021/07/26 04:26:54;;;;;;;2.00;1.80;;;21.60;99.90;;;;;;5075519;28;20619;-82
2021/07/26 04:29:21;;;;;;;2.00;1.80;;;21.70;99.90;;;;;;5071818;28;20234;-81
2021/07/26 04:31:48;;;;;;;2.92;2.72;;;21.60;99.90;;;;;;5055291;28;20195;-83
2021/07/26 04:34:14;;;;;;;2.58;2.25;;;21.60;99.90;;;;;;5055113;28;20215;-81
2021/07/26 04:36:41;;;;;;;2.28;2.08;;;21.60;99.90;;;;;;5055892;28;20203;-80
2021/07/26 04:39:08;;;;;;;2.83;2.10;;;21.60;99.90;;;;;;5060808;28;20639;-82
2021/07/26 04:41:34;;;;;;;2.45;2.20;;;21.60;99.90;;;;;;5061033;28;20191;-81
2021/07/26 04:44:03;;;;;;;3.78;2.15;;;21.60;99.90;;;;;;5074834;28;20227;-82
2021/07/26 04:46:29;;;;;;;2.10;1.90;;;21.60;99.90;;;;;;5066284;28;20188;-83
2021/07/26 04:48:56;;;;;;;2.60;2.40;;;21.60;99.90;;;;;;5072848;28;20559;-82
2021/07/26 04:51:23;;;;;;;3.60;2.30;;;21.60;99.90;;;;;;5069889;28;20195;-82
2021/07/26 04:53:49;;;;;;;2.90;2.28;;;21.60;99.90;;;;;;5055989;28;20222;-82
2021/07/26 04:56:16;;;;;;;2.30;2.10;;;21.60;99.90;;;;;;5055533;28;20549;-82
2021/07/26 04:58:43;;;;;;;3.10;2.25;;;21.50;99.90;;;;;;5055625;28;20203;-82
2021/07/26 05:01:11;;;;;;;2.20;2.00;;;21.60;99.90;;;;;;5058230;28;20597;-82
2021/07/26 05:03:37;;;;;;;2.60;2.40;;;21.50;99.90;;;;;;5066156;28;20191;-82
2021/07/26 05:06:06;;;;;;;2.13;1.95;;;21.50;99.90;;;;;;5053994;28;20187;-83
2021/07/26 05:08:33;;;;;;;3.65;2.45;;;21.50;99.90;;;;;;5055579;28;20194;-82
2021/07/26 05:11:00;;;;;;;2.78;1.90;;;21.50;99.90;;;;;;5057507;28;20647;-83
2021/07/26 05:13:26;;;;;;;2.40;2.20;;;21.50;99.90;;;;;;5059348;28;20219;-82
2021/07/26 05:15:53;;;;;;;2.00;1.90;;;21.50;99.90;;;;;;5056736;28;20207;-82
2021/07/26 05:18:23;;;;;;;5.65;2.05;;;21.50;99.90;;;;;;5050077;28;20206;-82
2021/07/26 05:20:49;;;;;;;4.57;2.80;;;21.40;99.90;;;;;;5059942;28;20203;-83
2021/07/26 05:23:17;;;;;;;3.85;1.95;;;21.40;99.90;;;;;;5058110;28;20211;-82
2021/07/26 05:25:44;;;;;;;2.72;2.00;;;21.40;99.90;;;;;;5059622;28;20597;-81
2021/07/26 05:28:11;;;;;;;2.60;2.40;;;21.40;99.90;;;;;;5058720;28;20235;-82
2021/07/26 05:30:38;;;;;;;2.17;1.98;;;21.40;99.90;;;;;;5058646;28;20261;-82
2021/07/26 05:33:05;;;;;;;3.15;2.38;;;21.40;99.90;;;;;;5058736;28;20611;-81
2021/07/26 05:35:33;;;;;;;3.05;2.22;;;21.50;99.90;;;;;;5058497;28;20187;-81
2021/07/26 05:38:03;;;;;;;2.50;2.30;;;21.40;99.90;;;;;;5059086;28;20207;-81
2021/07/26 05:40:29;;;;;;;2.75;2.55;;;21.40;99.90;;;;;;5058894;28;20651;-81
2021/07/26 05:42:56;;;;;;;2.95;2.45;;;21.50;99.90;;;;;;5070217;28;20195;-81
2021/07/26 05:45:23;;;;;;;4.90;2.88;;;21.50;99.90;;;;;;5078893;28;20588;-82
2021/07/26 05:47:50;;;;;;;2.53;2.22;;;21.50;99.90;;;;;;5078932;28;20202;-82
2021/07/26 05:50:18;;;;;;;2.10;1.90;;;21.60;99.90;;;;;;5073810;28;20195;-81
2021/07/26 05:52:46;;;;;;;3.03;2.83;;;21.70;99.90;;;;;;5061458;28;20228;-81
2021/07/26 05:55:13;;;;;;;3.20;2.95;;;21.70;99.90;;;;;;5058405;28;20203;-81
2021/07/26 05:57:44;;;;;;;5.18;2.38;;;21.90;99.90;;;;;;5058252;28;20188;-81
2021/07/26 06:00:15;;;;;;;4.07;2.47;;;21.90;99.90;;;;;;5057885;28;20192;-81
2021/07/26 06:02:42;;;;;;;2.70;2.25;;;22.00;99.90;;;;;;5067766;28;20191;-82
2021/07/26 06:05:09;;;;;;;2.27;1.60;;;22.20;99.90;;;;;;5058457;28;20238;-82
2021/07/26 06:07:36;;;;;;;2.40;2.07;;;22.40;99.90;;;;;;5072105;28;20453;-82
2021/07/26 06:10:04;;;;;;;2.30;2.10;;;22.60;99.90;;;;;;5062408;28;20475;-82
2021/07/26 06:12:31;;;;;;;2.30;2.10;;;22.80;99.90;;;;;;5075873;28;20440;-81
2021/07/26 06:14:58;;;;;;;2.47;1.80;;;23.00;99.90;;;;;;5076256;28;20960;-82
2021/07/26 06:17:24;;;;;;;1.90;1.80;;;23.20;99.90;;;;;;5077226;28;20436;-83
2021/07/26 06:19:51;;;;;;;3.77;2.23;;;23.40;99.90;;;;;;5059787;28;20456;-83
2021/07/26 06:22:18;;;;;;;2.03;1.80;;;23.50;99.90;;;;;;5058493;28;20461;-82
2021/07/26 06:24:44;;;;;;;2.30;2.10;;;23.70;99.90;;;;;;5058077;28;20473;-83
2021/07/26 06:27:12;;;;;;;2.03;1.67;;;23.90;99.90;;;;;;5057762;28;20446;-82
2021/07/26 06:29:39;;;;;;;1.90;1.80;;;24.00;99.90;;;;;;5070467;28;20785;-83
2021/07/26 06:32:07;;;;;;;6.23;1.80;;;24.10;99.90;;;;;;5071973;28;20441;-83
2021/07/26 06:34:33;;;;;;;1.87;1.77;;;24.30;99.90;;;;;;5067933;28;20473;-83
2021/07/26 06:37:00;;;;;;;2.53;2.33;;;24.40;99.90;;;;;;5066129;28;20449;-83
2021/07/26 06:39:27;;;;;;;2.10;1.57;;;24.50;99.90;;;;;;5074223;28;20460;-83
2021/07/26 06:41:53;;;;;;;1.97;1.77;;;24.60;99.90;;;;;;5078022;28;20491;-83
2021/07/26 06:44:22;;;;;;;1.87;1.73;;;24.60;99.90;;;;;;5066300;28;20453;-82
2021/07/26 06:46:49;;;;;;;2.00;1.90;;;24.80;99.90;;;;;;5062745;28;20457;-82
2021/07/26 06:49:16;;;;;;;1.83;1.60;;;24.90;99.90;;;;;;5069572;28;20943;-82
2021/07/26 06:51:43;;;;;;;2.23;2.03;;;25.00;99.90;;;;;;5057433;28;20445;-83
2021/07/26 06:54:09;;;;;;;4.30;1.80;;;25.00;99.90;;;;;;5056882;28;20474;-81
2021/07/26 06:56:36;;;;;;;1.70;1.60;;;25.10;99.90;;;;;;5056713;28;20469;-83
2021/07/26 06:59:03;;;;;;;2.73;1.90;;;25.20;99.90;;;;;;5063229;28;20442;-82
2021/07/26 07:01:31;;;;;;;3.00;1.80;;;25.30;99.90;;;;;;5063335;28;20438;-83
2021/07/26 07:03:57;;;;;;;3.50;1.77;;;25.30;99.90;;;;;;5053656;28;20482;-83
2021/07/26 07:06:26;;;;;;;1.50;1.40;;;25.40;99.90;;;;;;5048914;28;20944;-83
2021/07/26 07:08:53;;;;;;;2.00;1.80;;;25.50;99.90;;;;;;5059561;28;20450;-83
2021/07/26 07:11:20;;;;;;;1.90;1.77;;;25.50;99.90;;;;;;5060684;28;20801;-82
2021/07/26 07:13:49;;;;;;;2.00;1.80;;;25.50;99.90;;;;;;5056545;28;20481;-83
2021/07/26 07:16:17;;;;;;;2.13;1.57;;;25.60;99.90;;;;;;5055708;28;20496;-83
2021/07/26 07:18:46;;;;;;;1.57;1.47;;;25.70;99.90;;;;;;5056171;28;20450;-83
2021/07/26 07:21:17;;;;;;;1.93;1.80;;;25.80;99.90;;;;;;5054383;28;20453;-82
2021/07/26 07:23:44;;;;;;;2.20;2.00;;;25.80;99.90;;;;;;5070615;28;20807;-83
2021/07/26 07:26:11;;;;;;;1.80;1.60;;;25.90;99.90;;;;;;5054576;28;20460;-83
2021/07/26 07:28:38;;;;;;;2.10;1.90;;;26.00;99.90;;;;;;5055211;28;20520;-83
2021/07/26 07:31:05;;;;;;;1.90;1.73;;;26.00;99.90;;;;;;5055637;28;20450;-83
2021/07/26 07:33:32;;;;;;;1.57;1.47;;;26.20;99.90;;;;;;5053633;28;20485;-82
2021/07/26 07:36:03;;;;;;;1.97;1.70;;;26.20;99.90;;;;;;5056857;28;20461;-83
2021/07/26 07:38:30;;;;;;;2.23;2.03;;;26.30;99.90;;;;;;5055749;28;20446;-82
2021/07/26 07:40:58;;;;;;;1.93;1.73;;;26.30;99.90;;;;;;5056000;28;20446;-82
2021/07/26 07:43:25;;;;;;;1.83;1.73;;;26.40;99.90;;;;;;5067732;28;20529;-83
2021/07/26 07:45:51;;;;;;;3.70;2.03;;;26.40;99.90;;;;;;5067166;28;20440;-81
2021/07/26 07:48:19;;;;;;;2.80;1.40;;;26.50;99.90;;;;;;5063141;28;20462;-82
2021/07/26 07:50:46;;;;;;;1.40;1.30;;;26.50;99.90;;;;;;5053495;28;20474;-83
2021/07/26 07:53:15;;;;;;;2.90;2.17;;;26.50;99.90;;;;;;5051433;28;21067;-83
2021/07/26 07:55:42;;;;;;;1.67;1.57;;;26.60;99.90;;;;;;5055367;28;20822;-83
2021/07/26 07:58:09;;;;;;;2.20;1.73;;;26.60;99.90;;;;;;5054128;28;20473;-83
2021/07/26 08:00:36;;;;;;;2.07;1.87;;;26.70;99.90;;;;;;5052262;28;20442;-83
2021/07/26 08:03:03;;;;;;;2.10;1.90;;;26.70;99.90;;;;;;5056433;28;20798;-83
2021/07/26 08:05:30;;;;;;;3.83;1.93;;;26.80;99.90;;;;;;5051118;28;20509;-83
2021/07/26 08:07:57;;;;;;;2.20;2.00;;;26.80;99.90;;;;;;5036845;28;20451;-82
2021/07/26 08:10:25;;;;;;;2.33;1.83;;;26.70;99.90;;;;;;5036564;28;20444;-83
2021/07/26 08:12:52;;;;;;;3.10;2.00;;;26.60;99.90;;;;;;5056191;28;20441;-82
2021/07/26 08:15:19;;;;;;;1.80;1.70;;;26.60;99.90;;;;;;5068875;28;20976;-83
2021/07/26 08:17:47;;;;;;;1.80;1.43;;;26.70;99.90;;;;;;5068726;28;20826;-83
2021/07/26 08:20:17;;;;;;;2.50;2.30;;;26.70;99.90;;;;;;5066115;28;20457;-82
2021/07/26 08:22:44;;;;;;;2.23;1.73;;;26.70;99.90;;;;;;5060175;28;20441;-83
2021/07/26 08:25:12;;;;;;;2.13;1.90;;;26.80;99.90;;;;;;5057696;28;20440;-83
2021/07/26 08:27:50;;;;;;;2.33;1.90;;;26.80;99.90;;;;;;5056722;28;20473;-82
2021/07/26 08:30:20;;;;;;;1.40;1.30;;;26.90;99.90;;;;;;5060666;28;20446;-83
2021/07/26 08:32:46;;;;;;;1.90;1.63;;;27.00;99.90;;;;;;5056501;28;20929;-84
2021/07/26 08:35:13;;;;;;;1.87;1.67;;;27.00;99.90;;;;;;5055517;28;20478;-83
2021/07/26 08:37:40;;;;;;;1.87;1.70;;;27.10;99.90;;;;;;5061894;28;20453;-83
2021/07/26 08:40:07;;;;;;;1.60;1.50;;;27.10;99.90;;;;;;5056107;28;20960;-83
2021/07/26 08:42:34;;;;;;;2.80;1.50;;;27.10;99.90;;;;;;5055078;28;20814;-83
2021/07/26 08:45:04;;;;;;;1.90;1.80;;;27.10;99.90;;;;;;5054276;28;20827;-83
2021/07/26 08:47:34;;;;;;;2.17;2.00;;;27.00;99.90;;;;;;5056150;28;20453;-81
2021/07/26 08:50:04;;;;;;;2.50;1.87;;;27.00;99.90;;;;;;5059706;28;20434;-82
2021/07/26 08:52:33;;;;;;;2.03;1.80;;;27.00;99.90;;;;;;5058919;28;20442;-82
2021/07/26 08:55:02;;;;;;;2.00;1.60;;;27.00;99.90;;;;;;5049606;28;20974;-83
2021/07/26 08:57:30;;;;;;;2.10;1.77;;;27.00;99.90;;;;;;5049928;28;20441;-83
2021/07/26 08:59:57;;;;;;;1.87;1.67;;;27.00;99.90;;;;;;5070269;28;20437;-83
2021/07/26 09:02:25;;;;;;;4.60;1.60;;;27.00;99.90;;;;;;5057215;28;20453;-82
2021/07/26 09:04:52;;;;;;;1.73;1.63;;;26.80;99.90;;;;;;5066645;28;20441;-83
2021/07/26 09:07:26;;;;;;;4.33;2.23;;;26.60;99.90;;;;;;5073780;28;20937;-82
2021/07/26 09:09:52;;;;;;;2.00;1.70;;;26.50;99.90;;;;;;5053774;28;20480;-82
2021/07/26 09:12:31;;;;;;;1.80;1.60;;;26.50;99.90;;;;;;5067172;28;20448;-83
2021/07/26 09:14:58;;;;;;;3.33;1.87;;;26.50;99.90;;;;;;5053795;28;20988;-83
2021/07/26 09:17:37;;;;;;;1.83;1.67;;;26.60;99.90;;;;;;5057274;28;20461;-83
2021/07/26 09:20:05;;;;;;;1.70;1.57;;;26.40;99.90;;;;;;5059390;28;20445;-82
2021/07/26 09:22:33;;;;;;;2.10;1.90;;;26.50;99.90;;;;;;5058310;28;20457;-82
2021/07/26 09:25:20;;;;;;;1.87;1.67;;;26.60;99.90;;;;;;5058322;28;20437;-83
2021/07/26 09:27:58;;;;;;;1.50;1.30;;;26.50;99.90;;;;;;5073546;28;20515;-82
2021/07/26 09:30:26;;;;;;;2.37;1.80;;;26.60;99.90;;;;;;5065941;28;20496;-82
2021/07/26 09:32:54;;;;;;;2.37;1.70;;;26.60;99.90;;;;;;5057716;28;20449;-83
2021/07/26 09:35:24;;;;;;;2.00;1.80;;;26.60;99.90;;;;;;5058450;28;20465;-82
2021/07/26 09:37:58;;;;;;;1.63;1.53;;;26.60;99.90;;;;;;5064012;28;20454;-82
2021/07/26 09:40:27;;;;;;;2.33;1.77;;;26.60;99.90;;;;;;5059538;28;20432;-82
2021/07/26 09:42:54;;;;;;;1.50;1.40;;;26.60;99.90;;;;;;5063151;28;20877;-82
2021/07/26 09:45:22;;;;;;;1.77;1.67;;;26.60;99.90;;;;;;5057264;28;20442;-83
2021/07/26 09:48:15;;;;;;;2.10;1.63;;;26.60;99.90;;;;;;5055638;28;20481;-83
2021/07/26 09:50:43;;;;;;;1.83;1.73;;;26.50;99.90;;;;;;5046513;28;20458;-82
2021/07/26 09:53:14;;;;;;;1.60;1.43;;;26.60;99.90;;;;;;5058395;28;20821;-83
2021/07/26 09:55:42;;;;;;;1.93;1.73;;;26.50;99.90;;;;;;5056194;28;20520;-82
2021/07/26 09:58:11;;;;;;;1.93;1.43;;;26.50;99.90;;;;;;5058636;28;20860;-83
2021/07/26 10:00:38;;;;;;;2.50;1.90;;;26.50;99.90;;;;;;5055579;28;20965;-83
2021/07/26 10:03:07;;;;;;;2.63;1.70;;;26.60;99.90;;;;;;5051779;28;20458;-83
2021/07/26 10:05:37;;;;;;;1.93;1.57;;;26.60;99.90;;;;;;5053190;28;20445;-82
2021/07/26 10:08:05;;;;;;;2.37;1.60;;;26.60;99.90;;;;;;5068111;28;20443;-82
2021/07/26 10:10:34;;;;;;;2.60;1.60;;;26.60;99.90;;;;;;5068129;28;20446;-82
2021/07/26 10:13:01;;;;;;;2.30;1.63;;;26.60;99.90;;;;;;5070011;28;20885;-82
2021/07/26 10:15:30;;;;;;;2.73;1.60;;;26.50;99.90;;;;;;5058586;28;20481;-83
2021/07/26 10:17:56;;;;;;;1.80;1.50;;;26.40;99.90;;;;;;5076097;28;20452;-83
2021/07/26 10:20:25;;;;;;;2.20;1.97;;;26.40;99.90;;;;;;5063723;28;20465;-83
2021/07/26 10:22:58;;;;;;;3.03;1.73;;;26.30;99.90;;;;;;5060368;28;20852;-83
2021/07/26 10:25:32;;;;;;;2.07;1.87;;;26.30;99.90;;;;;;5059002;28;20481;-83
2021/07/26 10:28:00;;;;;;;2.13;1.80;;;26.30;99.90;;;;;;5064418;28;21023;-83
2021/07/26 10:30:35;;;;;;;2.80;1.97;;;26.30;99.90;;;;;;5072969;28;20446;-82
2021/07/26 10:33:02;;;;;;;2.20;2.00;;;26.30;99.90;;;;;;5054799;28;20866;-83
2021/07/26 10:35:51;;;;;;;2.70;2.13;;;26.40;99.90;;;;;;5057439;28;20489;-82
2021/07/26 10:38:51;;;;;;;2.17;1.70;;;26.40;99.90;;;;;;5068763;28;20536;-83
2021/07/26 10:42:04;;;;;;;4.93;2.03;;;26.40;99.90;;;;;;5069930;28;20438;-82
2021/07/26 10:44:47;;;;;;;2.03;1.87;;;26.40;99.90;;;;;;5041163;28;20783;-82
2021/07/26 10:47:18;;;;;;;2.87;1.67;;;26.30;99.90;;;;;;5042680;28;20531;-82
2021/07/26 10:50:13;;;;;;;2.27;2.07;;;26.30;99.90;;;;;;5063922;28;20445;-82
2021/07/26 10:52:50;;;;;;;2.23;2.03;;;26.30;99.90;;;;;;5056812;28;20446;-83
2021/07/26 10:56:09;;;;;;;1.77;1.43;;;26.40;99.90;;;;;;5054486;28;20543;-82
2021/07/26 10:59:03;;;;;;;2.40;2.20;;;26.40;99.90;;;;;;5068366;28;20445;-83
2021/07/26 11:02:01;;;;;;;2.00;1.80;;;26.40;99.90;;;;;;5060279;28;20438;-83
2021/07/26 11:04:44;;;;;;;2.00;1.67;;;26.40;99.90;;;;;;5059477;28;20485;-83
2021/07/26 11:07:28;;;;;;;2.10;1.90;;;26.40;99.90;;;;;;5042839;28;20914;-83
2021/07/26 11:09:55;;;;;;;1.93;1.73;;;26.50;99.90;;;;;;5049419;28;20462;-83
2021/07/26 11:12:51;;;;;;;2.23;1.83;;;26.50;99.90;;;;;;5058385;28;20889;-83
2021/07/26 11:15:20;;;;;;;1.87;1.77;;;26.50;99.90;;;;;;5053018;28;20490;-82
2021/07/26 11:18:18;;;;;;;2.13;1.63;;;26.50;99.90;;;;;;5058463;28;20473;-83
2021/07/26 11:21:03;;;;;;;2.20;2.00;;;26.50;99.90;;;;;;5045440;28;20476;-83
2021/07/26 11:23:37;;;;;;;2.50;2.30;;;26.50;99.90;;;;;;5055649;28;20830;-82
2021/07/26 11:26:04;;;;;;;1.50;1.40;;;26.50;99.90;;;;;;5058490;28;20933;-83
2021/07/26 11:28:36;;;;;;;2.13;1.93;;;26.50;99.90;;;;;;5054914;28;20846;-82
2021/07/26 11:31:05;;;;;;;1.83;1.57;;;26.50;99.90;;;;;;5054351;28;20498;-83
2021/07/26 11:33:33;;;;;;;2.33;2.00;;;26.60;99.90;;;;;;5054456;28;20461;-82
2021/07/26 11:36:00;;;;;;;2.00;1.80;;;26.60;99.90;;;;;;5056486;28;20478;-82
2021/07/26 11:38:26;;;;;;;2.23;1.97;;;26.60;99.90;;;;;;5063543;28;20454;-83
2021/07/26 11:40:53;;;;;;;2.60;2.23;;;26.60;99.90;;;;;;5057635;28;20445;-83
2021/07/26 11:43:33;;;;;;;1.93;1.80;;;26.60;99.90;;;;;;5061476;28;20450;-84
2021/07/26 11:46:00;;;;;;;2.60;1.93;;;26.60;99.90;;;;;;5056627;28;20476;-83
2021/07/26 11:48:29;;;;;;;3.43;2.13;;;26.60;99.90;;;;;;5057070;28;20457;-83
2021/07/26 11:50:56;;;;;;;2.27;2.07;;;26.60;99.90;;;;;;5071085;28;20457;-83
2021/07/26 11:53:27;;;;;;;1.97;1.83;;;26.60;99.90;;;;;;5056243;28;20461;-83
2021/07/26 11:55:54;;;;;;;2.40;2.07;;;26.60;99.90;;;;;;5056768;28;20466;-82
2021/07/26 11:58:26;;;;;;;2.07;1.87;;;26.60;99.90;;;;;;5057970;28;20459;-83
2021/07/26 12:00:54;;;;;;;2.37;2.17;;;26.60;99.90;;;;;;5062181;28;20475;-83
2021/07/26 12:03:23;;;;;;;2.13;1.70;;;26.60;99.90;;;;;;5063774;28;20441;-83
2021/07/26 12:06:02;;;;;;;1.80;1.63;;;26.60;99.90;;;;;;5067817;28;20441;-82
2021/07/26 12:08:28;;;;;;;2.13;1.83;;;26.60;99.90;;;;;;5070572;28;20434;-82
2021/07/26 12:10:55;;;;;;;2.00;1.80;;;26.60;99.90;;;;;;5055840;28;20493;-83
2021/07/26 12:13:23;;;;;;;1.87;1.63;;;26.60;99.90;;;;;;5067269;28;20455;-83
2021/07/26 12:15:51;;;;;;;2.13;1.93;;;26.60;99.90;;;;;;5050367;28;20555;-82
2021/07/26 12:18:18;;;;;;;2.03;1.77;;;26.60;99.90;;;;;;5065834;28;20485;-82
2021/07/26 12:20:58;;;;;;;2.80;1.63;;;26.60;99.90;;;;;;5061363;28;20442;-82
2021/07/26 12:23:26;;;;;;;1.80;1.70;;;26.60;99.90;;;;;;5056056;28;20447;-82
2021/07/26 12:25:54;;;;;;;1.93;1.73;;;26.60;99.90;;;;;;5055722;28;20445;-81
2021/07/26 12:28:23;;;;;;;2.10;1.90;;;26.60;99.90;;;;;;5056002;28;20997;-82
2021/07/26 12:30:52;;;;;;;2.90;1.70;;;26.60;99.90;;;;;;5047840;28;20482;-83
2021/07/26 12:33:29;;;;;;;2.37;2.17;;;26.60;99.90;;;;;;5054589;28;20926;-82
2021/07/26 12:36:13;;;;;;;2.73;2.10;;;26.60;99.90;;;;;;5050803;28;20490;-83
2021/07/26 12:38:40;;;;;;;2.27;2.03;;;26.60;99.90;;;;;;5072877;28;20447;-82
2021/07/26 12:41:10;;;;;;;2.23;2.03;;;26.60;99.90;;;;;;5071963;28;21909;-83
2021/07/26 12:43:37;;;;;;;2.10;1.90;;;26.60;99.90;;;;;;5056548;28;20458;-83
2021/07/26 12:46:05;;;;;;;1.70;1.57;;;26.60;99.90;;;;;;5070099;28;20925;-82
2021/07/26 12:48:34;;;;;;;1.90;1.70;;;26.60;99.90;;;;;;5064502;28;20926;-82
2021/07/26 12:51:02;;;;;;;2.63;2.00;;;26.60;99.90;;;;;;5053027;28;20454;-82
2021/07/26 12:53:30;;;;;;;2.77;2.20;;;26.50;99.90;;;;;;5073024;28;20452;-82
2021/07/26 12:55:57;;;;;;;2.53;2.07;;;26.60;99.90;;;;;;5076242;28;20473;-83
2021/07/26 12:58:26;;;;;;;2.50;2.30;;;26.60;99.90;;;;;;5055272;28;20465;-83